Time;durP1;ratioP1;P1;durP2;ratioP2;P2;SDS_P1;SDS_P2;PMS_P1;PMS_P2;Temp;Humidity;BMP_temperature;BMP_pressure;BME280_temperature;BME280_humidity;BME280_pressure;Samples;Min_cycle;Max_cycle;Signal;HPM_P1;HPM_P2
2023/03/30 00:01:34;;;;;;;11.73;7.30;;;10.00;99.90;;;;;;5053063;28;20201;-62
2023/03/30 00:04:01;;;;;;;12.13;7.77;;;10.00;99.90;;;;;;5053094;28;20201;-62
2023/03/30 00:06:28;;;;;;;9.50;8.43;;;10.00;99.90;;;;;;5053306;28;20484;-62
2023/03/30 00:08:56;;;;;;;8.93;7.70;;;9.90;99.90;;;;;;5052653;28;20451;-62
2023/03/30 00:11:24;;;;;;;10.93;7.07;;;9.90;99.90;;;;;;5052751;28;20444;-63
2023/03/30 00:13:51;;;;;;;10.80;7.20;;;10.00;99.90;;;;;;5052855;28;20440;-63
2023/03/30 00:16:19;;;;;;;8.13;7.27;;;9.90;99.90;;;;;;5052885;28;20486;-62
2023/03/30 00:18:46;;;;;;;11.65;6.93;;;9.90;99.90;;;;;;5052855;28;20445;-63
2023/03/30 00:21:16;;;;;;;8.80;7.70;;;9.90;99.90;;;;;;5052561;28;20600;-62
2023/03/30 00:23:45;;;;;;;9.43;7.97;;;9.90;99.90;;;;;;5053048;28;20452;-61
2023/03/30 00:26:14;;;;;;;8.27;7.47;;;9.90;99.90;;;;;;5053770;28;20841;-61
2023/03/30 00:28:41;;;;;;;9.80;7.00;;;9.90;99.90;;;;;;5057338;28;20197;-62
2023/03/30 00:31:09;;;;;;;7.80;6.87;;;9.80;99.90;;;;;;5057300;28;20193;-63
2023/03/30 00:33:36;;;;;;;11.10;7.63;;;9.80;99.90;;;;;;5056784;28;20551;-62
2023/03/30 00:36:03;;;;;;;7.53;6.77;;;9.80;99.90;;;;;;5056767;28;20511;-62
2023/03/30 00:38:30;;;;;;;10.35;7.95;;;9.70;99.90;;;;;;5056908;28;20527;-63
2023/03/30 00:40:59;;;;;;;8.60;6.50;;;9.70;99.90;;;;;;5056965;28;20204;-63
2023/03/30 00:43:29;;;;;;;8.68;7.45;;;9.60;99.90;;;;;;5056745;28;20225;-62
2023/03/30 00:45:56;;;;;;;7.15;6.45;;;9.60;99.90;;;;;;5056421;28;20198;-61
2023/03/30 00:48:26;;;;;;;9.75;6.72;;;9.60;99.90;;;;;;5056707;28;20202;-62
2023/03/30 00:50:55;;;;;;;7.55;6.18;;;9.50;99.90;;;;;;5056738;28;20228;-63
2023/03/30 00:53:25;;;;;;;9.45;6.40;;;9.50;99.90;;;;;;5056100;28;20237;-62
2023/03/30 00:55:54;;;;;;;10.32;7.47;;;9.50;99.90;;;;;;5056587;28;20312;-62
2023/03/30 00:58:22;;;;;;;7.60;6.50;;;9.50;99.90;;;;;;5056657;28;20202;-61
2023/03/30 01:00:51;;;;;;;10.25;6.60;;;9.50;99.90;;;;;;5055991;28;20459;-62
2023/03/30 01:03:22;;;;;;;7.30;5.70;;;9.50;99.90;;;;;;5056546;28;20597;-62
2023/03/30 01:05:51;;;;;;;6.85;5.75;;;9.50;99.90;;;;;;5056605;28;20582;-61
2023/03/30 01:08:18;;;;;;;8.47;6.07;;;9.50;99.90;;;;;;5057355;28;20515;-61
2023/03/30 01:10:45;;;;;;;21.90;8.30;;;9.50;99.90;;;;;;5056336;28;20823;-62
2023/03/30 01:13:13;;;;;;;6.75;5.65;;;9.50;99.90;;;;;;5056008;28;20617;-62
2023/03/30 01:15:46;;;;;;;8.13;5.30;;;9.50;99.90;;;;;;5056359;28;20202;-62
2023/03/30 01:18:24;;;;;;;7.90;5.72;;;9.60;99.90;;;;;;5056225;28;20236;-63
2023/03/30 01:21:28;;;;;;;6.55;5.45;;;9.60;99.90;;;;;;5056466;28;20186;-63
2023/03/30 01:24:48;;;;;;;9.60;5.97;;;9.60;99.90;;;;;;5056039;28;20231;-61
2023/03/30 01:27:46;;;;;;;8.27;5.57;;;9.70;99.90;;;;;;5052228;28;20569;-62
2023/03/30 01:30:45;;;;;;;5.60;5.10;;;9.70;99.90;;;;;;5055873;28;20200;-60
2023/03/30 01:33:50;;;;;;;5.47;4.67;;;9.70;99.90;;;;;;5055810;28;20308;-61
2023/03/30 01:36:40;;;;;;;5.20;4.00;;;9.80;99.90;;;;;;5056167;28;20901;-61
2023/03/30 01:39:29;;;;;;;5.87;5.27;;;9.80;99.90;;;;;;5052336;28;20470;-62
2023/03/30 01:42:01;;;;;;;6.07;5.40;;;9.70;99.90;;;;;;5055697;28;20836;-62
2023/03/30 01:44:34;;;;;;;9.60;5.78;;;9.70;99.90;;;;;;5056465;28;20204;-61
2023/03/30 01:47:08;;;;;;;6.03;5.40;;;9.70;99.90;;;;;;5055966;28;20186;-61
2023/03/30 01:49:41;;;;;;;7.03;5.60;;;9.70;99.90;;;;;;5055877;28;20272;-62
2023/03/30 01:52:14;;;;;;;7.82;5.15;;;9.70;99.90;;;;;;5055354;28;20249;-62
2023/03/30 01:54:47;;;;;;;5.30;4.57;;;9.70;99.90;;;;;;5055780;28;20190;-62
2023/03/30 01:57:18;;;;;;;8.48;5.60;;;9.70;99.90;;;;;;5055552;28;20217;-61
2023/03/30 01:59:55;;;;;;;6.53;4.68;;;9.70;99.90;;;;;;5056358;28;20224;-63
2023/03/30 02:02:24;;;;;;;6.10;4.57;;;9.70;99.90;;;;;;5054868;28;20395;-62
2023/03/30 02:04:53;;;;;;;6.45;5.78;;;9.60;99.90;;;;;;5054855;28;20301;-62
2023/03/30 02:07:23;;;;;;;5.95;4.85;;;9.60;99.90;;;;;;5055132;28;20558;-61
2023/03/30 02:09:55;;;;;;;7.53;5.30;;;9.60;99.90;;;;;;5055159;28;20205;-61
2023/03/30 02:12:23;;;;;;;7.03;4.75;;;9.60;99.90;;;;;;5055069;28;20229;-62
2023/03/30 02:14:52;;;;;;;5.85;4.78;;;9.60;99.90;;;;;;5055084;28;20213;-60
2023/03/30 02:17:23;;;;;;;6.63;5.10;;;9.70;99.90;;;;;;5055271;28;20222;-62
2023/03/30 02:19:53;;;;;;;5.20;4.70;;;9.70;99.90;;;;;;5054868;28;20528;-62
2023/03/30 02:22:20;;;;;;;7.15;5.40;;;9.70;99.90;;;;;;5054742;28;20218;-62
2023/03/30 02:24:50;;;;;;;6.38;5.45;;;9.70;99.90;;;;;;5054847;28;20208;-63
2023/03/30 02:27:19;;;;;;;9.25;5.47;;;9.70;99.90;;;;;;5054818;28;20335;-62
2023/03/30 02:29:46;;;;;;;7.50;4.80;;;9.70;99.90;;;;;;5054615;28;20204;-62
2023/03/30 02:32:17;;;;;;;5.27;4.77;;;9.80;99.90;;;;;;5054373;28;20589;-61
2023/03/30 02:35:03;;;;;;;5.00;4.50;;;9.80;99.90;;;;;;5054637;28;20433;-62
2023/03/30 02:37:59;;;;;;;5.13;4.60;;;9.70;99.90;;;;;;5054524;28;20205;-62
2023/03/30 02:40:36;;;;;;;6.07;4.82;;;9.70;99.90;;;;;;5044171;28;20668;-62
2023/03/30 02:43:23;;;;;;;6.10;4.55;;;9.70;99.90;;;;;;5054471;28;20229;-61
2023/03/30 02:45:57;;;;;;;6.05;4.70;;;9.70;99.90;;;;;;5040157;28;20263;-62
2023/03/30 02:48:39;;;;;;;6.28;4.80;;;9.70;99.90;;;;;;5054594;28;20190;-62
2023/03/30 02:51:18;;;;;;;5.00;4.03;;;9.80;99.90;;;;;;5053401;28;20209;-62
2023/03/30 02:53:50;;;;;;;6.55;4.75;;;9.80;99.90;;;;;;5054352;28;20185;-61
2023/03/30 02:56:24;;;;;;;6.63;5.07;;;9.90;99.90;;;;;;5054417;28;20190;-61
2023/03/30 02:58:56;;;;;;;5.27;4.37;;;9.90;99.90;;;;;;5054483;28;20521;-62
2023/03/30 03:01:31;;;;;;;5.53;4.23;;;9.90;99.90;;;;;;5054408;28;20433;-62
2023/03/30 03:04:00;;;;;;;5.67;4.40;;;10.00;99.90;;;;;;5054476;28;20776;-61
2023/03/30 03:06:28;;;;;;;6.60;4.53;;;10.00;99.90;;;;;;5054553;28;20527;-62
2023/03/30 03:08:56;;;;;;;5.63;4.17;;;10.00;99.90;;;;;;5054714;28;20539;-63
2023/03/30 03:11:23;;;;;;;5.87;5.27;;;10.00;99.90;;;;;;5054031;28;20448;-62
2023/03/30 03:13:50;;;;;;;4.85;4.28;;;10.00;99.90;;;;;;5053750;28;20474;-61
2023/03/30 03:16:19;;;;;;;5.65;4.07;;;10.10;99.90;;;;;;5053541;28;20201;-61
2023/03/30 03:18:46;;;;;;;8.03;4.60;;;10.10;99.90;;;;;;5053979;28;20202;-61
2023/03/30 03:21:13;;;;;;;8.40;4.55;;;10.10;99.90;;;;;;5053842;28;20451;-62
2023/03/30 03:23:40;;;;;;;4.80;3.97;;;10.10;99.90;;;;;;5053414;28;20212;-62
2023/03/30 03:26:07;;;;;;;4.43;3.97;;;10.20;99.90;;;;;;5053696;28;20206;-60
2023/03/30 03:28:34;;;;;;;8.73;3.90;;;10.20;99.90;;;;;;5053638;28;20440;-62
2023/03/30 03:31:02;;;;;;;4.53;4.13;;;10.20;99.90;;;;;;5053406;28;20455;-62
2023/03/30 03:33:31;;;;;;;5.23;4.57;;;10.30;99.90;;;;;;5053649;28;20472;-62
2023/03/30 03:35:59;;;;;;;4.10;3.70;;;10.30;99.90;;;;;;5053930;28;20444;-62
2023/03/30 03:38:26;;;;;;;5.37;4.50;;;10.30;99.90;;;;;;5053601;28;20222;-62
2023/03/30 03:40:54;;;;;;;8.43;4.25;;;10.40;99.90;;;;;;5053371;28;20567;-62
2023/03/30 03:43:22;;;;;;;4.43;3.73;;;10.40;99.90;;;;;;5053294;28;20754;-61
2023/03/30 03:45:50;;;;;;;6.17;4.20;;;10.40;99.90;;;;;;5053472;28;20471;-62
2023/03/30 03:48:19;;;;;;;6.10;4.03;;;10.50;99.90;;;;;;5053277;28;20451;-60
2023/03/30 03:50:49;;;;;;;7.77;3.63;;;10.50;99.90;;;;;;5053481;28;20446;-63
2023/03/30 03:53:16;;;;;;;4.20;3.57;;;10.60;99.90;;;;;;5052853;28;20475;-61
2023/03/30 03:55:44;;;;;;;4.67;3.50;;;10.60;99.90;;;;;;5053195;28;20470;-62
2023/03/30 03:58:11;;;;;;;7.10;3.73;;;10.60;99.90;;;;;;5052890;28;20864;-62
2023/03/30 04:00:37;;;;;;;4.40;3.70;;;10.70;99.90;;;;;;5053060;28;20452;-61
2023/03/30 04:03:05;;;;;;;6.50;3.40;;;10.70;99.90;;;;;;5052844;28;20464;-62
2023/03/30 04:05:32;;;;;;;4.03;3.63;;;10.70;99.90;;;;;;5052676;28;20447;-62
2023/03/30 04:11:29;;;;;;;6.87;3.73;;;10.90;99.90;;;;;;5154648;27;21183;-63
2023/03/30 04:13:56;;;;;;;5.03;4.53;;;10.90;99.90;;;;;;5173127;27;20431;-63
2023/03/30 04:16:23;;;;;;;7.67;3.87;;;10.90;99.90;;;;;;5173690;27;20439;-62
2023/03/30 04:18:49;;;;;;;6.87;5.03;;;10.90;99.90;;;;;;5173304;27;20450;-63
2023/03/30 04:21:18;;;;;;;6.90;4.03;;;11.00;99.90;;;;;;5173914;27;20442;-66
2023/03/30 04:23:47;;;;;;;4.90;3.50;;;11.00;99.90;;;;;;5173316;27;20450;-63
2023/03/30 04:26:16;;;;;;;6.00;4.10;;;11.00;99.90;;;;;;5172958;27;20507;-63
2023/03/30 04:28:45;;;;;;;5.13;3.50;;;11.00;99.90;;;;;;5173155;27;20443;-63
2023/03/30 04:31:12;;;;;;;4.97;4.00;;;11.00;99.90;;;;;;5172502;27;20567;-63
2023/03/30 04:33:44;;;;;;;4.37;3.40;;;11.00;99.90;;;;;;5172709;27;20462;-63
2023/03/30 04:36:16;;;;;;;6.03;3.73;;;11.00;99.90;;;;;;5172791;27;20423;-63
2023/03/30 04:38:43;;;;;;;5.63;4.53;;;10.90;99.90;;;;;;5172512;27;20432;-63
2023/03/30 04:41:13;;;;;;;4.93;3.87;;;10.90;99.90;;;;;;5172752;27;20439;-63
2023/03/30 04:43:40;;;;;;;5.67;3.60;;;10.90;99.90;;;;;;5172395;27;20443;-63
2023/03/30 04:46:08;;;;;;;7.43;4.07;;;10.90;99.90;;;;;;5172426;27;20435;-64
2023/03/30 04:48:35;;;;;;;5.43;4.20;;;11.00;99.90;;;;;;5172459;27;20445;-63
2023/03/30 04:51:02;;;;;;;4.03;3.13;;;10.90;99.90;;;;;;5172142;27;20480;-60
2023/03/30 04:53:29;;;;;;;5.60;4.07;;;11.00;99.90;;;;;;5172283;27;20463;-61
2023/03/30 04:55:55;;;;;;;4.13;3.70;;;11.00;99.90;;;;;;5172403;27;20435;-62
2023/03/30 04:58:22;;;;;;;7.43;3.80;;;11.10;99.90;;;;;;5172218;27;20442;-63
2023/03/30 05:00:49;;;;;;;7.30;4.60;;;11.10;99.90;;;;;;5172106;27;20798;-63
2023/03/30 05:03:17;;;;;;;3.83;3.47;;;11.20;99.90;;;;;;5173156;27;20863;-63
2023/03/30 05:05:44;;;;;;;5.10;4.60;;;11.20;99.90;;;;;;5172806;27;20803;-62
2023/03/30 05:08:11;;;;;;;5.10;3.60;;;11.20;99.90;;;;;;5172643;27;20447;-62
2023/03/30 05:10:38;;;;;;;6.07;3.80;;;11.20;99.90;;;;;;5172451;27;20485;-64
2023/03/30 05:13:04;;;;;;;5.60;3.30;;;11.20;99.90;;;;;;5171690;27;20828;-64
2023/03/30 05:15:31;;;;;;;3.83;3.50;;;11.30;99.90;;;;;;5172039;27;20470;-64
2023/03/30 05:17:59;;;;;;;6.33;3.70;;;11.30;99.90;;;;;;5171806;27;20445;-64
2023/03/30 05:20:28;;;;;;;4.97;3.83;;;11.30;99.90;;;;;;5171456;27;20439;-63
2023/03/30 05:22:54;;;;;;;4.40;3.70;;;11.30;99.90;;;;;;5157151;27;20463;-64
2023/03/30 05:25:21;;;;;;;5.10;3.40;;;11.30;99.90;;;;;;5157746;27;20447;-64
2023/03/30 05:27:48;;;;;;;4.50;3.73;;;11.30;99.90;;;;;;5158013;27;20439;-64
2023/03/30 05:30:15;;;;;;;3.70;3.37;;;11.20;99.90;;;;;;5157824;27;20483;-64
2023/03/30 05:32:42;;;;;;;8.00;3.70;;;11.20;99.90;;;;;;5157818;27;20466;-63
2023/03/30 05:35:10;;;;;;;3.60;3.20;;;11.30;99.90;;;;;;5161543;27;20834;-64
2023/03/30 05:37:38;;;;;;;5.73;3.30;;;11.30;99.90;;;;;;5160835;27;20542;-63
2023/03/30 05:40:08;;;;;;;3.23;2.77;;;11.40;99.90;;;;;;5158154;27;20438;-63
2023/03/30 05:42:35;;;;;;;4.57;2.93;;;11.50;99.90;;;;;;5158386;27;20467;-63
2023/03/30 05:45:02;;;;;;;5.03;3.40;;;11.60;99.90;;;;;;5157493;27;20450;-64
2023/03/30 05:47:28;;;;;;;3.47;2.80;;;11.70;99.90;;;;;;5158773;27;20439;-64
2023/03/30 05:49:55;;;;;;;3.10;2.80;;;11.80;99.90;;;;;;5158762;27;20578;-64
2023/03/30 05:52:22;;;;;;;9.63;3.07;;;11.90;99.90;;;;;;5157537;27;20467;-63
2023/03/30 05:54:50;;;;;;;7.63;3.00;;;11.90;99.90;;;;;;5158346;27;20451;-60
2023/03/30 05:57:17;;;;;;;2.97;2.67;;;12.00;99.90;;;;;;5157521;27;20447;-63
2023/03/30 05:59:44;;;;;;;4.00;3.00;;;12.10;99.90;;;;;;5157755;27;20443;-63
2023/03/30 06:02:11;;;;;;;4.63;2.50;;;12.20;99.90;;;;;;5157267;27;20464;-62
2023/03/30 06:04:38;;;;;;;4.20;3.07;;;12.30;99.90;;;;;;5158454;27;20444;-63
2023/03/30 06:07:06;;;;;;;4.13;2.73;;;12.40;99.90;;;;;;5158779;27;20440;-64
2023/03/30 06:09:37;;;;;;;5.00;2.70;;;12.50;99.90;;;;;;5159294;27;20493;-63
2023/03/30 06:12:06;;;;;;;3.27;2.27;;;12.50;99.90;;;;;;5158005;27;20459;-64
2023/03/30 06:14:32;;;;;;;3.13;2.83;;;12.60;99.90;;;;;;5157511;27;20937;-64
2023/03/30 06:16:59;;;;;;;5.43;2.53;;;12.70;99.90;;;;;;5157823;27;20440;-63
2023/03/30 06:19:26;;;;;;;4.40;2.10;;;12.80;99.90;;;;;;5157622;27;20442;-63
2023/03/30 06:21:53;;;;;;;5.00;2.63;;;12.90;99.90;;;;;;5158075;27;20467;-64
2023/03/30 06:24:20;;;;;;;4.57;2.80;;;13.00;99.90;;;;;;5158372;27;20526;-63
2023/03/30 06:26:48;;;;;;;5.33;2.60;;;13.00;99.90;;;;;;5161050;27;20435;-63
2023/03/30 06:29:16;;;;;;;3.70;2.17;;;13.10;99.90;;;;;;5163065;27;20439;-64
2023/03/30 06:31:43;;;;;;;2.93;2.30;;;13.20;99.90;;;;;;5163612;27;20503;-63
2023/03/30 06:34:10;;;;;;;3.20;2.53;;;13.30;99.90;;;;;;5161013;27;20444;-64
2023/03/30 06:36:37;;;;;;;5.17;2.53;;;13.50;99.90;;;;;;5157489;27;20454;-63
2023/03/30 06:39:04;;;;;;;4.40;2.37;;;13.70;99.90;;;;;;5157667;27;20439;-63
2023/03/30 06:41:31;;;;;;;6.20;2.80;;;13.80;99.90;;;;;;5157652;27;20526;-63
2023/03/30 06:43:58;;;;;;;5.97;2.47;;;14.00;99.90;;;;;;5159295;27;20447;-63
2023/03/30 06:46:26;;;;;;;6.27;2.43;;;14.00;99.90;;;;;;5161083;27;20448;-63
2023/03/30 06:48:53;;;;;;;5.57;2.57;;;14.10;99.90;;;;;;5161634;27;20440;-64
2023/03/30 06:51:20;;;;;;;3.37;2.73;;;14.10;99.90;;;;;;5158514;27;20906;-63
2023/03/30 06:53:47;;;;;;;4.17;2.50;;;14.20;99.90;;;;;;5159541;27;20436;-63
2023/03/30 06:56:14;;;;;;;3.87;2.23;;;14.20;99.90;;;;;;5160679;27;20444;-63
2023/03/30 06:58:41;;;;;;;5.23;2.70;;;14.20;99.90;;;;;;5159039;27;20438;-63
2023/03/30 07:01:12;;;;;;;6.20;2.50;;;14.20;99.90;;;;;;5158267;27;20496;-64
2023/03/30 07:03:41;;;;;;;4.30;2.30;;;14.20;99.90;;;;;;5159544;27;20466;-64
2023/03/30 07:06:09;;;;;;;5.10;2.50;;;14.20;99.80;;;;;;5162629;27;20508;-63
2023/03/30 07:08:36;;;;;;;5.13;2.80;;;14.30;99.80;;;;;;5161406;27;20780;-63
2023/03/30 07:11:04;;;;;;;3.67;2.20;;;14.30;99.50;;;;;;5161017;27;20479;-63
2023/03/30 07:13:31;;;;;;;4.90;2.40;;;14.30;99.00;;;;;;5161824;27;20460;-64
2023/03/30 07:15:58;;;;;;;4.90;2.27;;;14.30;98.60;;;;;;5162449;27;20435;-63
2023/03/30 07:18:24;;;;;;;2.90;2.00;;;14.30;98.50;;;;;;5162218;27;20444;-64
2023/03/30 07:20:53;;;;;;;5.03;2.83;;;14.40;98.40;;;;;;5157762;27;20523;-63
2023/03/30 07:23:20;;;;;;;4.57;2.40;;;14.40;98.10;;;;;;5155962;27;20463;-64
2023/03/30 07:25:47;;;;;;;3.47;2.17;;;14.50;97.90;;;;;;5156691;27;20530;-65
2023/03/30 07:28:14;;;;;;;4.60;2.63;;;14.50;97.70;;;;;;5156417;27;20440;-65
2023/03/30 07:30:40;;;;;;;8.37;2.40;;;14.60;97.40;;;;;;5155444;27;20502;-63
2023/03/30 07:33:07;;;;;;;5.90;2.77;;;14.70;97.10;;;;;;5155549;27;20462;-63
2023/03/30 07:35:34;;;;;;;3.13;2.07;;;14.80;96.80;;;;;;5155353;27;20494;-64
2023/03/30 07:38:02;;;;;;;4.43;2.83;;;14.90;96.50;;;;;;5155476;27;20439;-63
2023/03/30 07:40:29;;;;;;;3.20;2.10;;;15.00;96.30;;;;;;5156029;27;20475;-64
2023/03/30 07:42:56;;;;;;;4.93;2.37;;;15.00;96.10;;;;;;5155452;27;20464;-64
2023/03/30 07:45:23;;;;;;;7.30;2.60;;;15.10;96.10;;;;;;5155675;27;20458;-63
2023/03/30 07:47:50;;;;;;;5.23;2.50;;;15.20;95.40;;;;;;5155253;27;20936;-64
2023/03/30 07:50:17;;;;;;;3.90;2.30;;;15.30;95.10;;;;;;5155098;27;20893;-65
2023/03/30 07:52:43;;;;;;;6.20;2.70;;;15.50;94.90;;;;;;5155616;27;20470;-63
2023/03/30 07:55:12;;;;;;;5.83;2.30;;;15.60;94.40;;;;;;5155537;27;20439;-63
2023/03/30 07:57:39;;;;;;;7.00;2.70;;;15.70;94.10;;;;;;5155185;27;20572;-64
2023/03/30 08:00:09;;;;;;;4.10;2.00;;;15.80;93.60;;;;;;5154607;27;20452;-65
2023/03/30 08:02:36;;;;;;;4.90;2.23;;;15.80;93.20;;;;;;5155431;27;20582;-65
2023/03/30 08:05:03;;;;;;;3.20;1.90;;;15.90;92.80;;;;;;5154976;27;20448;-64
2023/03/30 08:07:31;;;;;;;6.10;2.37;;;15.90;92.40;;;;;;5154604;27;20462;-64
2023/03/30 08:09:57;;;;;;;4.40;2.50;;;16.00;92.00;;;;;;5154709;27;20967;-64
2023/03/30 08:12:26;;;;;;;2.60;1.90;;;16.10;91.70;;;;;;5155654;27;20566;-65
2023/03/30 08:14:54;;;;;;;6.17;2.30;;;16.20;91.10;;;;;;5154710;27;20936;-64
2023/03/30 08:17:21;;;;;;;2.47;1.80;;;16.30;90.60;;;;;;5154751;27;20493;-64
2023/03/30 08:19:48;;;;;;;6.00;2.20;;;16.40;90.10;;;;;;5156058;27;20440;-65
2023/03/30 08:22:15;;;;;;;6.70;2.23;;;16.50;89.00;;;;;;5155687;27;20456;-63
2023/03/30 08:24:41;;;;;;;3.17;2.57;;;16.50;87.80;;;;;;5156407;27;20494;-64
2023/03/30 08:27:08;;;;;;;4.10;2.50;;;16.50;87.10;;;;;;5156903;27;20465;-65
2023/03/30 08:29:40;;;;;;;5.00;2.27;;;16.50;86.80;;;;;;5156265;27;20462;-64
2023/03/30 08:32:07;;;;;;;3.50;2.40;;;16.50;86.60;;;;;;5156631;27;20514;-64
2023/03/30 08:34:34;;;;;;;3.83;2.10;;;16.40;86.80;;;;;;5156741;27;20446;-64
2023/03/30 08:37:01;;;;;;;6.70;2.00;;;16.50;87.00;;;;;;5156548;27;20479;-64
2023/03/30 08:39:31;;;;;;;5.40;2.17;;;16.60;87.00;;;;;;5156322;27;20497;-62
2023/03/30 08:42:11;;;;;;;4.57;2.00;;;16.70;86.60;;;;;;5155408;27;20460;-64
2023/03/30 08:44:42;;;;;;;4.73;1.93;;;16.80;85.50;;;;;;5154514;27;20438;-66
2023/03/30 08:47:13;;;;;;;2.73;2.00;;;16.90;84.60;;;;;;5154879;27;20428;-64
2023/03/30 08:49:44;;;;;;;3.60;2.23;;;16.90;84.30;;;;;;5155017;27;20454;-63
2023/03/30 08:52:19;;;;;;;3.20;2.20;;;17.10;83.60;;;;;;5155410;27;21016;-64
2023/03/30 08:54:47;;;;;;;5.70;2.30;;;17.10;82.80;;;;;;5155291;27;20430;-64
2023/03/30 08:57:23;;;;;;;4.07;3.30;;;17.10;83.90;;;;;;5160395;27;20440;-64
2023/03/30 08:59:58;;;;;;;4.43;2.00;;;17.00;86.00;;;;;;5161391;27;20896;-64
2023/03/30 09:02:31;;;;;;;5.40;2.60;;;16.90;88.20;;;;;;5160539;27;20466;-64
2023/03/30 09:05:04;;;;;;;5.63;2.20;;;16.80;89.40;;;;;;5160102;27;20540;-63
2023/03/30 09:07:36;;;;;;;6.20;2.87;;;16.90;90.10;;;;;;5159721;27;20434;-64
2023/03/30 09:10:04;;;;;;;4.37;2.10;;;17.10;89.20;;;;;;5159276;27;20455;-63
2023/03/30 09:12:38;;;;;;;7.53;2.60;;;17.40;87.20;;;;;;5158443;27;20521;-64
2023/03/30 09:15:12;;;;;;;3.20;2.33;;;17.60;84.40;;;;;;5158402;27;20800;-64
2023/03/30 09:17:42;;;;;;;6.10;3.83;;;17.70;82.20;;;;;;5160767;27;20853;-64
2023/03/30 09:20:15;;;;;;;2.83;2.00;;;17.70;80.70;;;;;;5159768;27;20480;-64
2023/03/30 09:22:44;;;;;;;3.97;2.60;;;17.80;79.50;;;;;;5158925;27;20474;-64
2023/03/30 09:25:17;;;;;;;4.17;1.90;;;17.90;76.80;;;;;;5159228;27;20447;-63
2023/03/30 09:27:50;;;;;;;6.60;2.47;;;17.90;75.20;;;;;;5159613;27;20447;-63
2023/03/30 09:30:25;;;;;;;7.23;2.00;;;18.10;73.80;;;;;;5158760;27;20425;-64
2023/03/30 09:32:59;;;;;;;5.50;2.10;;;18.30;71.00;;;;;;5158831;27;20485;-64
2023/03/30 09:35:35;;;;;;;4.37;2.40;;;18.50;69.70;;;;;;5158798;27;20433;-65
2023/03/30 09:38:02;;;;;;;4.47;2.03;;;18.50;68.60;;;;;;5158470;27;20440;-62
2023/03/30 09:40:41;;;;;;;2.70;1.53;;;18.40;68.20;;;;;;5159327;27;20477;-64
2023/03/30 09:43:15;;;;;;;2.70;1.67;;;18.20;68.10;;;;;;5158449;27;20575;-65
2023/03/30 09:45:44;;;;;;;5.70;2.50;;;18.00;68.30;;;;;;5157079;27;20931;-64
2023/03/30 09:48:11;;;;;;;4.87;2.40;;;17.70;68.80;;;;;;5157628;27;20496;-64
2023/03/30 09:50:41;;;;;;;4.33;2.23;;;17.40;70.50;;;;;;5158333;27;20446;-64
2023/03/30 09:53:23;;;;;;;3.50;2.60;;;17.00;73.60;;;;;;5157718;27;20974;-65
2023/03/30 09:56:02;;;;;;;4.50;2.30;;;16.60;78.20;;;;;;5158648;27;20439;-64
2023/03/30 09:58:33;;;;;;;3.73;2.70;;;15.80;93.70;;;;;;5158076;27;20432;-64
2023/03/30 10:01:07;;;;;;;7.53;4.07;;;14.90;99.20;;;;;;5159302;27;20443;-64
2023/03/30 10:03:35;;;;;;;4.37;3.57;;;14.30;99.90;;;;;;5159562;27;20862;-64
2023/03/30 10:06:06;;;;;;;5.20;3.40;;;14.00;99.90;;;;;;5159651;27;20439;-62
2023/03/30 10:08:36;;;;;;;4.97;3.40;;;13.90;99.90;;;;;;5160471;27;20435;-64
2023/03/30 10:11:05;;;;;;;3.87;3.03;;;13.90;99.90;;;;;;5160197;27;20559;-63
2023/03/30 10:13:33;;;;;;;6.13;4.03;;;14.10;99.90;;;;;;5159789;27;20498;-64
2023/03/30 10:16:07;;;;;;;6.10;2.87;;;14.30;99.90;;;;;;5160374;27;20447;-63
2023/03/30 10:18:40;;;;;;;5.67;3.70;;;14.40;99.90;;;;;;5160956;27;20427;-63
2023/03/30 10:21:17;;;;;;;7.43;3.47;;;14.50;99.90;;;;;;5160532;27;20428;-63
2023/03/30 10:23:46;;;;;;;5.33;3.47;;;14.80;99.90;;;;;;5160397;27;20444;-64
2023/03/30 10:26:17;;;;;;;6.80;4.00;;;15.00;99.90;;;;;;5159553;27;20455;-63
2023/03/30 10:28:52;;;;;;;5.00;3.57;;;15.10;99.90;;;;;;5161842;27;20442;-62
2023/03/30 10:31:22;;;;;;;4.13;2.73;;;15.00;99.90;;;;;;5162445;27;20459;-64
2023/03/30 10:33:49;;;;;;;9.57;3.43;;;15.10;99.90;;;;;;5163701;27;20508;-65
2023/03/30 10:36:19;;;;;;;7.73;3.53;;;15.20;99.90;;;;;;5160041;27;20863;-64
2023/03/30 10:38:46;;;;;;;3.93;2.40;;;15.50;99.90;;;;;;5159565;27;20445;-64
2023/03/30 10:41:16;;;;;;;4.70;2.50;;;15.70;99.90;;;;;;5161201;27;20440;-64
2023/03/30 10:43:44;;;;;;;3.93;2.17;;;15.70;99.90;;;;;;5159708;27;20440;-64
2023/03/30 10:46:14;;;;;;;4.17;1.87;;;15.40;99.90;;;;;;5160580;27;20439;-62
2023/03/30 10:48:57;;;;;;;3.87;1.80;;;14.70;99.90;;;;;;5160094;27;20440;-63
2023/03/30 10:51:35;;;;;;;6.90;2.07;;;13.80;99.90;;;;;;5160532;27;20470;-63
2023/03/30 10:54:10;;;;;;;4.27;1.97;;;13.10;99.90;;;;;;5160673;27;20416;-63
2023/03/30 10:56:43;;;;;;;4.50;2.50;;;12.50;99.90;;;;;;5160547;27;20420;-61
2023/03/30 10:59:22;;;;;;;2.03;1.80;;;12.10;99.90;;;;;;5160122;27;20439;-62
2023/03/30 11:02:01;;;;;;;3.43;1.73;;;12.00;99.90;;;;;;5158123;27;20463;-62
2023/03/30 11:04:35;;;;;;;4.57;1.80;;;11.90;99.90;;;;;;5158488;27;20442;-62
2023/03/30 11:07:04;;;;;;;4.00;2.37;;;11.90;99.90;;;;;;5159025;27;20426;-63
2023/03/30 11:09:37;;;;;;;2.30;1.50;;;11.90;99.90;;;;;;5157379;27;20448;-63
2023/03/30 11:12:07;;;;;;;7.13;2.00;;;11.90;99.90;;;;;;5157979;27;20582;-63
2023/03/30 11:14:49;;;;;;;5.00;2.53;;;11.90;99.90;;;;;;5158848;27;20940;-64
2023/03/30 11:17:22;;;;;;;4.20;2.67;;;12.10;99.90;;;;;;5157552;27;20806;-62
2023/03/30 11:19:55;;;;;;;11.17;2.40;;;12.30;99.90;;;;;;5156512;27;20435;-62
2023/03/30 11:22:31;;;;;;;4.37;2.50;;;12.40;99.90;;;;;;5158770;27;20466;-63
2023/03/30 11:24:59;;;;;;;5.70;2.53;;;12.60;99.90;;;;;;5158550;27;20915;-63
2023/03/30 11:27:30;;;;;;;9.23;2.13;;;12.70;99.90;;;;;;5159802;27;20440;-63
2023/03/30 11:30:03;;;;;;;6.10;2.27;;;12.80;99.90;;;;;;5160293;27;20423;-63
2023/03/30 11:32:35;;;;;;;3.40;2.07;;;12.90;99.90;;;;;;5159712;27;20484;-63
2023/03/30 11:35:13;;;;;;;5.47;2.40;;;13.10;99.90;;;;;;5158990;27;20420;-62
2023/03/30 11:37:46;;;;;;;5.30;2.50;;;13.20;99.90;;;;;;5159039;27;20459;-63
2023/03/30 11:40:17;;;;;;;5.23;2.20;;;13.40;99.90;;;;;;5158546;27;20496;-63
2023/03/30 11:42:46;;;;;;;4.93;2.40;;;13.50;99.90;;;;;;5157406;27;20466;-64
2023/03/30 11:45:38;;;;;;;4.60;2.57;;;13.60;99.90;;;;;;5157300;27;20447;-64
2023/03/30 11:48:19;;;;;;;12.80;3.23;;;13.80;99.90;;;;;;5157335;27;20921;-64
2023/03/30 11:51:05;;;;;;;4.23;2.17;;;13.90;99.90;;;;;;5156997;27;20428;-63
2023/03/30 11:53:39;;;;;;;7.83;4.23;;;14.10;99.90;;;;;;5157402;27;21011;-63
2023/03/30 11:56:10;;;;;;;3.40;1.90;;;14.40;99.90;;;;;;5158109;27;20801;-63
2023/03/30 11:58:38;;;;;;;5.00;2.30;;;14.50;99.90;;;;;;5160719;27;20444;-60
2023/03/30 12:01:38;;;;;;;7.43;3.50;;;14.70;99.90;;;;;;5160975;27;20448;-63
2023/03/30 12:04:09;;;;;;;4.50;2.40;;;14.90;99.90;;;;;;5160458;27;20453;-64
2023/03/30 12:06:40;;;;;;;4.93;1.90;;;15.20;99.90;;;;;;5160230;27;20491;-64
2023/03/30 12:09:25;;;;;;;5.23;2.40;;;15.30;99.30;;;;;;5159205;27;20428;-64
2023/03/30 12:11:57;;;;;;;8.43;2.20;;;15.40;97.20;;;;;;5160118;27;20566;-64
2023/03/30 12:14:55;;;;;;;3.57;1.50;;;15.60;97.10;;;;;;5161100;27;20902;-64
2023/03/30 12:17:32;;;;;;;6.53;2.03;;;16.00;94.60;;;;;;5158543;27;20424;-64
2023/03/30 12:20:05;;;;;;;4.50;1.87;;;16.20;93.00;;;;;;5156346;27;20423;-64
2023/03/30 12:22:39;;;;;;;5.87;2.47;;;16.30;92.50;;;;;;5156297;27;20463;-64
2023/03/30 12:25:18;;;;;;;7.10;2.30;;;16.50;92.40;;;;;;5156069;27;20424;-64
2023/03/30 12:27:59;;;;;;;6.77;2.53;;;16.50;90.60;;;;;;5156571;27;20432;-63
2023/03/30 12:30:27;;;;;;;3.57;1.90;;;16.50;90.30;;;;;;5158042;27;20424;-63
2023/03/30 12:32:59;;;;;;;8.00;2.27;;;16.40;89.20;;;;;;5161873;27;21075;-64
2023/03/30 12:35:51;;;;;;;6.47;2.30;;;16.40;85.10;;;;;;5163098;27;20454;-64
2023/03/30 12:38:22;;;;;;;3.40;1.97;;;16.40;84.40;;;;;;5163474;27;20428;-64
2023/03/30 12:40:56;;;;;;;5.13;2.40;;;16.40;84.00;;;;;;5162525;27;20468;-64
2023/03/30 12:43:31;;;;;;;2.37;1.70;;;16.50;84.20;;;;;;5168288;27;20459;-64
2023/03/30 12:46:06;;;;;;;2.27;1.20;;;16.70;82.80;;;;;;5168108;27;20423;-63
2023/03/30 12:48:48;;;;;;;2.70;1.23;;;16.90;74.50;;;;;;5167319;27;20846;-64
2023/03/30 12:51:31;;;;;;;3.77;1.40;;;17.00;69.60;;;;;;5166421;27;20492;-64
2023/03/30 12:54:27;;;;;;;5.53;1.13;;;16.90;67.50;;;;;;5163016;27;20471;-63
2023/03/30 12:57:02;;;;;;;5.50;1.43;;;16.90;66.50;;;;;;5129239;27;20436;-62
2023/03/30 12:59:59;;;;;;;3.07;1.13;;;16.90;65.70;;;;;;5166044;27;20419;-64
2023/03/30 13:02:39;;;;;;;4.57;1.00;;;16.80;65.70;;;;;;5131941;27;20455;-62
2023/03/30 13:05:17;;;;;;;3.43;1.20;;;16.70;63.50;;;;;;5165642;27;20412;-63
2023/03/30 13:07:45;;;;;;;2.97;1.17;;;16.60;64.40;;;;;;5166269;27;20423;-63
2023/03/30 13:10:36;;;;;;;4.30;1.73;;;16.40;65.00;;;;;;5165920;27;20450;-63
2023/03/30 13:13:04;;;;;;;2.27;1.10;;;16.20;65.10;;;;;;5167212;27;20972;-63